Time;durP1;ratioP1;P1;durP2;ratioP2;P2;SDS_P1;SDS_P2;PMS_P1;PMS_P2;Temp;Humidity;BMP_temperature;BMP_pressure;BME280_temperature;BME280_humidity;BME280_pressure;Samples;Min_cycle;Max_cycle;Signal;HPM_P1;HPM_P2
2022/01/04 00:01:15;;;;;;;2.33;1.02;;;;;;;6.65;100.00;99260.09;5090592;28;20081;-60
2022/01/04 00:03:41;;;;;;;3.05;1.02;;;;;;;6.64;100.00;99266.22;5092048;28;20035;-60
2022/01/04 00:06:07;;;;;;;10.70;1.23;;;;;;;6.67;100.00;99263.44;5091037;28;20055;-60
2022/01/04 00:08:32;;;;;;;2.88;1.15;;;;;;;6.63;100.00;99251.47;5092049;28;20425;-59
2022/01/04 00:11:07;;;;;;;11.70;1.45;;;;;;;6.62;100.00;99247.19;5091052;28;20099;-60
2022/01/04 00:13:33;;;;;;;3.72;1.30;;;;;;;6.62;100.00;99244.59;5090965;28;20064;-60
2022/01/04 00:15:59;;;;;;;9.05;1.58;;;;;;;6.60;100.00;99246.41;5090822;28;20387;-60
2022/01/04 00:18:25;;;;;;;2.70;1.17;;;;;;;6.59;100.00;99229.09;5087783;28;20116;-60
2022/01/04 00:20:50;;;;;;;2.63;1.00;;;;;;;6.61;100.00;99229.84;5091869;28;20089;-59
2022/01/04 00:23:16;;;;;;;3.17;1.38;;;;;;;6.59;100.00;99219.47;5092326;28;20523;-59
2022/01/04 00:25:42;;;;;;;2.22;0.80;;;;;;;6.58;100.00;99215.19;5074747;28;20032;-59
2022/01/04 00:28:07;;;;;;;3.92;1.23;;;;;;;6.58;100.00;99214.34;5091924;28;20051;-59
2022/01/04 00:30:38;;;;;;;4.10;1.52;;;;;;;6.58;100.00;99211.75;5091483;28;20111;-59
2022/01/04 00:33:05;;;;;;;5.95;1.50;;;;;;;6.55;100.00;99197.09;5092585;28;20032;-59
2022/01/04 00:35:31;;;;;;;3.78;1.40;;;;;;;6.56;100.00;99203.13;5092405;28;20032;-60
2022/01/04 00:37:57;;;;;;;2.78;1.30;;;;;;;6.02;100.00;99103.41;5091108;28;20035;-60
2022/01/04 00:40:23;;;;;;;2.28;0.77;;;;;;;6.54;100.00;99176.28;5092205;28;20031;-59
2022/01/04 00:42:48;;;;;;;5.93;1.08;;;;;;;6.54;100.00;99173.69;5092318;28;20024;-59
2022/01/04 00:45:14;;;;;;;2.63;1.15;;;;;;;6.53;100.00;99169.38;5090957;28;20044;-59
2022/01/04 00:49:09;;;;;;;2.38;1.15;;;;;;;6.50;100.00;99166.94;5092079;28;20024;-59
2022/01/04 00:50:29;;;;;;;2.50;1.35;;;;;;;6.51;100.00;99159.03;5091994;28;20036;-59
2022/01/04 00:52:54;;;;;;;3.28;1.30;;;;;;;6.49;100.00;99149.63;5092194;28;20024;-60
2022/01/04 00:55:20;;;;;;;4.03;1.55;;;;;;;6.47;100.00;99151.44;5092035;28;20474;-59
2022/01/04 00:57:45;;;;;;;3.00;1.00;;;;;;;6.34;100.00;99129.56;5092080;28;20024;-59
2022/01/04 01:00:13;;;;;;;2.67;1.02;;;;;;;6.45;100.00;99142.88;5090068;28;20059;-60
2022/01/04 01:02:38;;;;;;;1.42;0.65;;;;;;;6.44;100.00;99136.81;5092172;28;20028;-59
2022/01/04 01:05:04;;;;;;;2.55;1.00;;;;;;;6.44;100.00;99141.19;5091928;28;20101;-59
2022/01/04 01:07:30;;;;;;;4.15;1.80;;;;;;;6.43;100.00;99145.56;5091961;28;20028;-59
2022/01/04 01:12:23;;;;;;;1.95;0.80;;;;;;;6.43;100.00;99123.84;5092190;28;20052;-61
2022/01/04 01:14:49;;;;;;;3.67;1.42;;;;;;;6.36;100.00;99123.31;5091213;28;20118;-59
2022/01/04 01:17:14;;;;;;;2.75;1.10;;;;;;;6.43;100.00;99131.66;5092204;28;20035;-59
2022/01/04 01:19:39;;;;;;;3.53;1.38;;;;;;;6.36;100.00;99123.31;5093327;28;20827;-59
2022/01/04 01:22:05;;;;;;;5.38;1.25;;;;;;;6.43;100.00;99129.03;5095410;28;20119;-58
2022/01/04 01:24:30;;;;;;;2.38;0.73;;;;;;;6.22;100.00;99088.47;5095736;28;20016;-59
2022/01/04 01:26:55;;;;;;;2.28;0.93;;;;;;;6.42;100.00;99122.97;5092068;28;20504;-59
2022/01/04 01:29:21;;;;;;;2.25;0.90;;;;;;;6.42;100.00;99117.75;5095281;28;20426;-59
2022/01/04 01:31:46;;;;;;;5.82;1.15;;;;;;;6.43;100.00;99111.63;5094823;28;20020;-59
2022/01/04 01:34:11;;;;;;;4.97;1.40;;;;;;;6.42;100.00;99111.72;5095040;28;20059;-59
2022/01/04 01:36:37;;;;;;;4.75;0.93;;;;;;;6.39;100.00;99111.88;5091167;28;20467;-59
2022/01/04 01:39:03;;;;;;;2.72;1.40;;;;;;;6.40;100.00;99113.56;5095143;28;20044;-59
2022/01/04 01:41:29;;;;;;;3.50;1.25;;;;;;;6.39;100.00;99111.88;5095257;28;20039;-59
2022/01/04 01:43:54;;;;;;;3.80;1.08;;;;;;;6.40;100.00;99118.78;5095093;28;20024;-60
2022/01/04 01:46:19;;;;;;;2.40;1.10;;;;;;;6.40;100.00;99117.03;5094373;28;20028;-59
2022/01/04 01:48:45;;;;;;;3.10;1.33;;;;;;;6.41;100.00;99117.88;5095371;28;20067;-59
2022/01/04 01:51:10;;;;;;;2.67;1.20;;;;;;;6.41;100.00;99107.44;5086246;28;20471;-59
2022/01/04 01:53:36;;;;;;;2.13;0.93;;;;;;;6.38;100.00;99102.38;5074160;28;20028;-59
2022/01/04 01:56:02;;;;;;;2.35;1.33;;;;;;;6.37;100.00;99103.28;5094445;28;20032;-59
2022/01/04 01:58:27;;;;;;;2.90;1.25;;;;;;;6.40;100.00;99098.75;5110915;28;20020;-59
2022/01/04 02:00:52;;;;;;;2.30;0.93;;;;;;;6.39;100.00;99101.44;5094282;28;20062;-59
2022/01/04 02:03:18;;;;;;;2.15;0.82;;;;;;;6.39;100.00;99096.22;5094247;28;20032;-59
2022/01/04 02:05:43;;;;;;;1.83;1.00;;;;;;;6.38;100.00;99089.34;5091350;28;20115;-59
2022/01/04 02:08:09;;;;;;;1.98;1.00;;;;;;;6.38;100.00;99084.97;5094431;28;20028;-59
2022/01/04 02:10:35;;;;;;;2.33;0.90;;;;;;;6.38;100.00;99084.13;5095139;28;20081;-60
2022/01/04 02:13:01;;;;;;;4.10;1.17;;;;;;;6.37;100.00;99072.84;5076374;28;20023;-60
2022/01/04 02:15:29;;;;;;;7.88;1.50;;;;;;;6.37;100.00;99072.84;5090330;28;20073;-59
2022/01/04 02:17:54;;;;;;;2.13;1.08;;;;;;;6.36;100.00;99070.31;5094692;28;20028;-59
2022/01/04 02:20:20;;;;;;;2.40;1.20;;;;;;;6.38;100.00;99063.25;5094602;28;20031;-59
2022/01/04 02:22:45;;;;;;;2.55;1.15;;;;;;;6.36;100.00;99052.88;5094183;28;20083;-59
2022/01/04 02:25:11;;;;;;;3.40;1.10;;;;;;;6.38;100.00;99064.09;5077459;28;20024;-59
2022/01/04 02:27:39;;;;;;;2.92;1.15;;;;;;;6.36;100.00;99055.50;5094691;28;20511;-59
2022/01/04 02:30:07;;;;;;;2.13;0.93;;;;;;;6.38;100.00;99058.03;5094682;28;20063;-59
2022/01/04 02:32:32;;;;;;;3.78;1.50;;;;;;;6.37;100.00;99045.91;5092690;28;20040;-59
2022/01/04 02:34:58;;;;;;;2.35;1.30;;;;;;;6.36;100.00;99041.59;5094260;28;20077;-59
2022/01/04 02:37:25;;;;;;;2.70;1.30;;;;;;;6.38;100.00;99037.16;5110079;28;20099;-59
2022/01/04 02:39:52;;;;;;;3.22;1.20;;;;;;;6.37;100.00;99038.09;5094364;28;20024;-60
2022/01/04 02:42:17;;;;;;;2.30;1.10;;;;;;;6.30;100.00;99026.31;5076116;28;20028;-59
2022/01/04 02:44:43;;;;;;;1.92;0.82;;;;;;;6.37;100.00;99019.81;5094163;28;20496;-59
2022/01/04 02:47:08;;;;;;;3.42;1.45;;;;;;;6.36;100.00;99029.41;5093486;28;20040;-59
2022/01/04 02:49:34;;;;;;;2.70;1.27;;;;;;;6.35;100.00;99016.47;5094247;28;20123;-59
2022/01/04 02:51:59;;;;;;;3.60;1.65;;;;;;;6.33;100.00;99019.16;5093850;28;20032;-59
2022/01/04 02:54:25;;;;;;;2.15;1.08;;;;;;;6.31;100.00;99009.72;5093821;28;20093;-59
2022/01/04 02:56:50;;;;;;;3.55;1.60;;;;;;;6.31;100.00;99004.50;5109530;28;20024;-59
2022/01/04 02:59:15;;;;;;;3.17;1.40;;;;;;;6.32;100.00;99001.81;5093809;28;20442;-59
2022/01/04 03:01:41;;;;;;;4.38;1.70;;;;;;;6.18;100.00;98980.03;5093732;28;20088;-59
2022/01/04 03:04:07;;;;;;;2.72;1.25;;;;;;;6.08;100.00;98957.06;5084422;28;20059;-59
2022/01/04 03:06:34;;;;;;;3.92;1.48;;;;;;;6.27;100.00;98987.34;5093702;28;20077;-59
2022/01/04 03:08:59;;;;;;;2.70;1.20;;;;;;;6.26;100.00;98976.06;5093663;28;20032;-59
2022/01/04 03:11:25;;;;;;;3.42;1.58;;;;;;;6.27;100.00;98976.91;5093482;28;20035;-60
2022/01/04 03:13:50;;;;;;;2.83;1.33;;;;;;;6.26;100.00;98964.78;5091946;28;20051;-59
2022/01/04 03:16:15;;;;;;;3.28;1.15;;;;;;;6.25;100.00;98960.53;5092583;28;20042;-59
2022/01/04 03:19:02;;;;;;;3.38;1.80;;;;;;;6.24;100.00;98962.28;5093469;28;20054;-59
2022/01/04 03:21:26;;;;;;;1.98;1.25;;;;;;;6.24;100.00;98964.06;5090559;28;20046;-59
2022/01/04 03:23:51;;;;;;;3.83;1.60;;;;;;;6.26;100.00;98954.34;5092284;28;20032;-59
2022/01/04 03:26:17;;;;;;;2.88;1.17;;;;;;;6.26;100.00;98941.31;5093510;28;20038;-59
2022/01/04 03:28:42;;;;;;;4.82;1.77;;;;;;;6.25;100.00;98937.91;5093236;28;20044;-59
2022/01/04 03:31:08;;;;;;;5.78;1.90;;;;;;;6.28;100.00;98926.44;5092927;28;20039;-59
2022/01/04 03:33:34;;;;;;;5.50;1.98;;;;;;;6.26;100.00;98928.28;5092271;28;20541;-59
2022/01/04 03:36:01;;;;;;;3.00;1.20;;;;;;;6.26;100.00;98942.16;5083326;28;20055;-59
2022/01/04 03:38:26;;;;;;;2.90;1.70;;;;;;;6.24;100.00;98931.00;5093276;28;20470;-60
2022/01/04 03:40:52;;;;;;;3.70;1.85;;;;;;;6.27;100.00;98924.75;5091199;28;20077;-59
2022/01/04 03:43:17;;;;;;;3.00;1.52;;;;;;;6.27;100.00;98916.94;5093048;28;20107;-59
2022/01/04 03:45:42;;;;;;;3.33;1.75;;;;;;;6.25;100.00;98908.38;5093292;28;20085;-59
2022/01/04 03:48:08;;;;;;;3.33;1.85;;;;;;;5.92;100.00;98856.31;5092963;28;20027;-59
2022/01/04 03:50:33;;;;;;;4.07;1.90;;;;;;;6.28;100.00;98908.19;5093292;28;20394;-59
2022/01/04 03:52:58;;;;;;;4.03;1.50;;;;;;;6.30;100.00;98906.31;5091168;28;20103;-59
2022/01/04 03:55:24;;;;;;;3.40;1.80;;;;;;;6.32;100.00;98907.09;5093019;28;20071;-59
2022/01/04 03:57:49;;;;;;;6.93;2.13;;;;;;;6.34;100.00;98895.63;5091991;28;20429;-60
2022/01/04 04:00:15;;;;;;;8.10;2.22;;;;;;;6.18;100.00;98867.91;5091518;28;20027;-59
2022/01/04 04:02:40;;;;;;;3.30;1.98;;;;;;;6.35;100.00;98880.84;5093053;28;20059;-59
2022/01/04 04:05:06;;;;;;;4.72;2.22;;;;;;;6.37;100.00;98873.75;5093029;28;20020;-59
2022/01/04 04:07:31;;;;;;;5.80;2.28;;;;;;;6.35;100.00;98859.97;5070697;28;20056;-59
2022/01/04 04:09:57;;;;;;;3.00;1.70;;;;;;;6.35;100.00;98854.75;5069769;28;20032;-59
2022/01/04 04:12:23;;;;;;;5.03;2.30;;;;;;;6.35;100.00;98855.59;5091705;28;20020;-59
2022/01/04 04:14:49;;;;;;;3.58;1.98;;;;;;;6.22;100.00;98827.69;5092792;28;20028;-59
2022/01/04 04:17:14;;;;;;;6.05;2.35;;;;;;;6.37;100.00;98842.44;5092717;28;20444;-59
2022/01/04 04:19:39;;;;;;;6.63;2.15;;;;;;;6.34;100.00;98821.75;5064764;28;20024;-59
2022/01/04 04:22:05;;;;;;;4.40;2.50;;;;;;;6.33;100.00;98825.28;5092119;28;20039;-59
2022/01/04 04:24:30;;;;;;;5.13;2.38;;;;;;;6.26;100.00;98821.34;5092470;28;20032;-59
2022/01/04 04:26:55;;;;;;;3.33;2.08;;;;;;;6.29;100.00;98821.16;5091261;28;20458;-59
2022/01/04 04:29:21;;;;;;;3.95;2.00;;;;;;;6.27;100.00;98813.47;5087614;28;20040;-59
2022/01/04 04:31:46;;;;;;;3.47;2.13;;;;;;;6.26;100.00;98816.97;5092841;28;20020;-59
2022/01/04 04:34:11;;;;;;;5.55;2.45;;;;;;;6.27;100.00;98823.03;5091475;28;20020;-59
2022/01/04 04:36:37;;;;;;;5.00;2.58;;;;;;;6.26;100.00;98826.56;5085154;28;20027;-59
2022/01/04 04:39:03;;;;;;;4.20;2.25;;;;;;;6.25;100.00;98819.69;5071810;28;20106;-59
2022/01/04 04:41:29;;;;;;;5.47;3.08;;;;;;;6.27;100.00;98825.66;5092025;28;20334;-59
2022/01/04 04:43:54;;;;;;;5.90;3.05;;;;;;;6.28;100.00;98822.13;5091883;28;20050;-59
2022/01/04 04:46:21;;;;;;;4.65;2.85;;;;;;;6.29;100.00;98824.63;5092422;28;20070;-59
2022/01/04 04:48:46;;;;;;;6.72;3.03;;;;;;;6.25;100.00;98806.66;5092651;28;20024;-59
2022/01/04 04:51:12;;;;;;;4.57;2.63;;;;;;;6.17;100.00;98812.31;5092697;28;20082;-59
2022/01/04 04:53:38;;;;;;;3.95;2.45;;;;;;;6.32;100.00;98823.63;5088763;28;20085;-59
2022/01/04 04:56:03;;;;;;;5.60;2.90;;;;;;;6.22;100.00;98799.81;5095225;28;20118;-59
2022/01/04 04:58:29;;;;;;;10.57;3.50;;;;;;;6.34;100.00;98811.31;5092047;28;20035;-59
2022/01/04 05:00:54;;;;;;;5.05;2.58;;;;;;;6.33;100.00;98814.84;5095933;28;20024;-59
2022/01/04 05:03:20;;;;;;;4.70;2.45;;;;;;;6.34;100.00;98813.94;5096144;28;20046;-60
2022/01/04 05:05:45;;;;;;;6.32;2.60;;;;;;;6.36;100.00;98809.47;5095448;28;20024;-60
2022/01/04 05:08:10;;;;;;;4.93;2.78;;;;;;;6.35;100.00;98813.00;5092135;28;20364;-60
2022/01/04 05:10:36;;;;;;;7.50;2.80;;;;;;;6.33;100.00;98809.63;5095882;28;20047;-60
2022/01/04 05:13:01;;;;;;;4.53;2.65;;;;;;;6.33;100.00;98815.69;5094840;28;20035;-60
2022/01/04 05:15:27;;;;;;;5.20;2.42;;;;;;;6.34;100.00;98817.38;5095758;28;20389;-60
2022/01/04 05:17:52;;;;;;;4.03;2.45;;;;;;;6.36;100.00;98812.06;5095944;28;20032;-59
2022/01/04 05:20:17;;;;;;;3.90;2.13;;;;;;;6.37;100.00;98816.38;5095849;28;20117;-60
2022/01/04 05:22:43;;;;;;;4.78;2.33;;;;;;;6.39;100.00;98814.50;5095295;28;20028;-60
2022/01/04 05:25:09;;;;;;;3.95;2.38;;;;;;;6.38;100.00;98815.44;5095723;28;20027;-59
2022/01/04 05:27:34;;;;;;;9.45;2.33;;;;;;;6.38;100.00;98802.41;5094750;28;20024;-60
2022/01/04 05:29:59;;;;;;;5.18;2.38;;;;;;;6.40;100.00;98787.47;5094765;28;20115;-60
2022/01/04 05:32:25;;;;;;;3.97;2.20;;;;;;;6.37;100.00;98787.66;5095544;28;20077;-60
2022/01/04 05:34:50;;;;;;;3.58;1.60;;;;;;;6.37;100.00;98792.88;5095495;28;20024;-59
2022/01/04 05:37:16;;;;;;;3.85;2.00;;;;;;;6.37;100.00;98796.34;5095162;28;20020;-60
2022/01/04 05:39:41;;;;;;;4.28;2.28;;;;;;;6.36;100.00;98778.16;5094133;28;20032;-60
2022/01/04 05:42:08;;;;;;;10.80;2.25;;;;;;;6.34;100.00;98762.63;5093190;28;20600;-59
2022/01/04 05:44:34;;;;;;;3.95;1.95;;;;;;;6.34;100.00;98743.50;5094264;28;20044;-59
2022/01/04 05:47:00;;;;;;;6.78;2.42;;;;;;;6.32;100.00;98742.78;5092647;28;20024;-60
2022/01/04 05:49:25;;;;;;;4.53;2.35;;;;;;;6.28;100.00;98738.66;5094964;28;20031;-60
2022/01/04 05:51:51;;;;;;;8.88;2.55;;;;;;;6.21;100.00;98742.56;5095245;28;20047;-60
2022/01/04 05:54:16;;;;;;;4.18;2.50;;;;;;;6.22;100.00;98747.66;5093666;28;20028;-59
2022/01/04 05:56:41;;;;;;;5.18;2.85;;;;;;;6.22;100.00;98755.50;5095013;28;20039;-59
2022/01/04 05:59:07;;;;;;;8.25;5.25;;;;;;;5.92;100.00;98706.00;5072187;28;20036;-60
2022/01/04 06:01:32;;;;;;;13.07;8.77;;;;;;;6.26;100.00;98750.94;5094848;28;20060;-59
2022/01/04 06:03:58;;;;;;;13.23;8.52;;;;;;;6.27;100.00;98748.25;5094926;28;20034;-60
2022/01/04 06:06:23;;;;;;;16.08;9.55;;;;;;;6.27;100.00;98763.91;5094540;28;20050;-60
2022/01/04 06:08:49;;;;;;;12.27;8.05;;;;;;;6.27;100.00;98758.69;5094590;28;20055;-60
2022/01/04 06:16:39;;;;;;;4.93;2.75;;;;;;;6.31;100.00;98754.13;5092481;28;20039;-59
2022/01/04 06:19:05;;;;;;;6.40;2.80;;;;;;;6.28;100.00;98746.50;5094282;28;20036;-60
2022/01/04 06:21:30;;;;;;;6.22;2.22;;;;;;;6.26;100.00;98741.34;5094117;28;20118;-60
2022/01/04 06:23:57;;;;;;;6.45;2.40;;;;;;;6.23;100.00;98732.88;5094514;28;20093;-59
2022/01/04 06:26:23;;;;;;;4.63;2.47;;;;;;;6.22;100.00;98724.19;5094504;28;20068;-59
2022/01/04 06:28:48;;;;;;;5.63;3.65;;;;;;;6.20;100.00;98730.44;5092968;28;20051;-59
2022/01/04 06:31:13;;;;;;;6.38;2.95;;;;;;;6.18;100.00;98728.75;5056406;28;20043;-59
2022/01/04 06:33:39;;;;;;;7.13;3.85;;;;;;;6.22;100.00;98739.03;5045658;28;20027;-59
2022/01/04 06:36:04;;;;;;;9.48;5.30;;;;;;;6.22;100.00;98733.81;5044465;28;20100;-59
2022/01/04 06:38:30;;;;;;;10.27;5.55;;;;;;;6.22;100.00;98723.38;5045994;28;20051;-59
2022/01/04 06:40:55;;;;;;;6.10;4.20;;;;;;;6.23;100.00;98730.25;5047379;28;20028;-59
2022/01/04 06:43:20;;;;;;;10.05;4.05;;;;;;;6.18;100.00;98720.94;5046364;28;20906;-59
2022/01/04 06:45:46;;;;;;;7.88;4.35;;;;;;;6.22;100.00;98733.81;5047254;28;20028;-59
2022/01/04 06:48:11;;;;;;;9.27;4.43;;;;;;;6.21;100.00;98726.91;5045197;28;20035;-60
2022/01/04 06:50:37;;;;;;;8.18;4.32;;;;;;;6.21;100.00;98725.16;5029975;28;20035;-59
2022/01/04 06:53:02;;;;;;;7.28;4.93;;;;;;;6.20;100.00;98733.06;5046927;28;20043;-59
2022/01/04 06:55:28;;;;;;;9.90;5.32;;;;;;;6.20;100.00;98730.44;5047195;28;20132;-60
2022/01/04 06:57:53;;;;;;;9.85;5.65;;;;;;;6.18;100.00;98718.31;5027343;28;20016;-60
2022/01/04 07:00:18;;;;;;;9.00;5.53;;;;;;;6.18;100.00;98715.72;5049189;28;20032;-59
2022/01/04 07:02:44;;;;;;;9.10;5.20;;;;;;;6.18;100.00;98705.28;5091911;28;20390;-60
2022/01/04 07:05:09;;;;;;;11.40;5.45;;;;;;;6.19;100.00;98698.31;5093640;28;20032;-59
2022/01/04 07:07:35;;;;;;;9.00;6.00;;;;;;;6.18;100.00;98686.22;5093801;28;20428;-60
2022/01/04 07:10:00;;;;;;;9.90;5.25;;;;;;;6.14;100.00;98693.38;5109829;28;20031;-60
2022/01/04 07:12:26;;;;;;;8.63;5.85;;;;;;;5.90;100.00;98666.16;5093992;28;20024;-59
2022/01/04 07:14:52;;;;;;;12.88;6.35;;;;;;;6.15;100.00;98705.47;5090773;28;20028;-59
2022/01/04 07:17:17;;;;;;;10.20;6.43;;;;;;;5.53;100.00;98615.34;5085920;28;20055;-60
2022/01/04 07:19:43;;;;;;;10.88;6.03;;;;;;;6.18;100.00;98703.63;5093688;28;20047;-60
2022/01/04 07:22:09;;;;;;;9.27;6.68;;;;;;;5.92;100.00;98664.28;5093472;28;20044;-60
2022/01/04 07:24:34;;;;;;;8.65;6.75;;;;;;;6.20;100.00;98710.44;5092992;28;20188;-59
2022/01/04 07:26:59;;;;;;;8.27;6.38;;;;;;;6.20;100.00;98713.03;5092748;28;20806;-59
2022/01/04 07:29:25;;;;;;;13.02;7.65;;;;;;;6.20;100.00;98712.19;5092929;28;20032;-59
2022/01/04 07:31:50;;;;;;;7.45;5.93;;;;;;;6.18;100.00;98716.66;5091660;28;20020;-59
2022/01/04 07:34:15;;;;;;;10.70;6.82;;;;;;;6.17;100.00;98710.63;5092250;28;20054;-60
2022/01/04 07:36:41;;;;;;;11.65;7.07;;;;;;;6.18;100.00;98695.81;5074642;28;20034;-60
2022/01/04 07:39:06;;;;;;;9.90;6.60;;;;;;;6.18;100.00;98686.22;5053464;28;20032;-59
2022/01/04 07:41:33;;;;;;;10.07;7.35;;;;;;;6.17;100.00;98694.97;5056636;28;20028;-60
2022/01/04 07:43:58;;;;;;;10.65;7.40;;;;;;;6.18;100.00;98700.06;5051938;28;20093;-60
2022/01/04 07:46:25;;;;;;;11.18;7.30;;;;;;;6.20;100.00;98704.38;5059630;28;20035;-60
2022/01/04 07:48:51;;;;;;;11.80;7.00;;;;;;;6.19;100.00;98695.69;5090823;28;20032;-60
2022/01/04 07:51:16;;;;;;;13.18;7.95;;;;;;;6.18;100.00;98697.47;5092968;28;20050;-60
2022/01/04 07:53:42;;;;;;;14.05;7.63;;;;;;;6.21;100.00;98706.06;5092940;28;20386;-60
2022/01/04 07:56:07;;;;;;;9.60;7.00;;;;;;;6.20;100.00;98709.59;5093179;28;20024;-60
2022/01/04 07:58:33;;;;;;;11.75;7.72;;;;;;;6.17;100.00;98710.63;5092954;28;20398;-59
2022/01/04 08:00:58;;;;;;;15.18;8.00;;;;;;;6.20;100.00;98709.59;5092322;28;20040;-60
2022/01/04 08:03:24;;;;;;;10.18;7.30;;;;;;;6.19;100.00;98703.53;5092866;28;20131;-60
2022/01/04 08:05:49;;;;;;;14.95;8.13;;;;;;;6.20;100.00;98706.97;5093057;28;20027;-59
2022/01/04 08:08:15;;;;;;;12.52;7.20;;;;;;;6.18;100.00;98705.28;5082147;28;20475;-60
2022/01/04 08:10:40;;;;;;;12.00;7.55;;;;;;;6.20;100.00;98696.53;5093276;28;20032;-60
2022/01/04 08:13:06;;;;;;;9.85;7.30;;;;;;;6.19;100.00;98687.88;5093040;28;20020;-59
2022/01/04 08:15:31;;;;;;;9.90;7.03;;;;;;;6.19;100.00;98680.06;5092990;28;20016;-60
2022/01/04 08:17:57;;;;;;;9.63;7.18;;;;;;;5.75;100.00;98601.03;5092900;28;20363;-60
2022/01/04 08:20:23;;;;;;;11.73;6.80;;;;;;;6.20;100.00;98667.88;5092792;28;20027;-60
2022/01/04 08:22:48;;;;;;;9.85;6.85;;;;;;;5.86;100.00;98607.31;5091410;28;20036;-60
2022/01/04 08:25:16;;;;;;;9.75;6.53;;;;;;;6.21;100.00;98656.50;5092332;28;20032;-60
2022/01/04 08:27:42;;;;;;;14.30;6.43;;;;;;;6.23;100.00;98650.25;5091840;28;20020;-60
2022/01/04 08:30:10;;;;;;;7.38;4.70;;;;;;;6.23;100.00;98650.25;5095447;28;20109;-59
2022/01/04 08:32:37;;;;;;;7.80;5.15;;;;;;;6.22;100.00;98648.56;5096699;28;20090;-60
2022/01/04 08:35:03;;;;;;;10.88;4.93;;;;;;;6.21;100.00;98665.19;5096831;28;20433;-60
2022/01/04 08:37:29;;;;;;;7.97;4.57;;;;;;;6.23;100.00;98684.16;5096523;28;20028;-60
2022/01/04 08:39:55;;;;;;;8.07;4.75;;;;;;;6.22;100.00;98682.47;5096808;28;20032;-60
2022/01/04 08:42:22;;;;;;;8.88;4.65;;;;;;;6.26;100.00;98685.75;5096717;28;20487;-60
2022/01/04 08:44:50;;;;;;;8.98;4.65;;;;;;;6.30;100.00;98682.03;5096393;28;20085;-60
2022/01/04 08:47:17;;;;;;;5.88;3.83;;;;;;;6.21;100.00;98672.16;5096565;28;20114;-60
2022/01/04 08:49:43;;;;;;;5.15;3.55;;;;;;;6.33;100.00;98700.09;5096516;28;20490;-60
2022/01/04 08:52:08;;;;;;;6.47;4.18;;;;;;;6.35;100.00;98713.91;5096594;28;20138;-60
2022/01/04 08:54:34;;;;;;;6.03;3.72;;;;;;;6.35;100.00;98717.34;5094752;28;20038;-60
2022/01/04 08:57:00;;;;;;;5.03;3.95;;;;;;;6.37;100.00;98728.53;5093208;28;20403;-60
2022/01/04 08:59:27;;;;;;;5.03;3.35;;;;;;;6.38;100.00;98713.72;5093804;28;20032;-60
2022/01/04 09:01:52;;;;;;;6.68;4.50;;;;;;;6.25;100.00;98692.75;5095227;28;20032;-59
2022/01/04 09:04:18;;;;;;;6.03;3.63;;;;;;;6.24;100.00;98691.06;5094626;28;20150;-69
2022/01/04 09:06:43;;;;;;;5.78;3.85;;;;;;;6.40;100.00;98706.63;5076719;28;20039;-60
2022/01/04 09:09:08;;;;;;;5.97;3.83;;;;;;;6.45;100.00;98688.94;5096004;28;20068;-60
2022/01/04 09:11:34;;;;;;;7.03;4.18;;;;;;;6.44;100.00;98669.00;5095918;28;20028;-60
2022/01/04 09:14:42;;;;;;;6.10;4.22;;;;;;;6.43;100.00;98670.75;5095311;28;20024;-60
2022/01/04 09:19:36;;;;;;;5.78;3.95;;;;;;;6.44;100.00;98698.53;5079682;28;20406;-60
2022/01/04 09:22:02;;;;;;;7.18;4.20;;;;;;;6.47;100.00;98714.00;5094916;28;20036;-59
2022/01/04 09:24:28;;;;;;;8.45;3.90;;;;;;;6.45;100.00;98720.25;5089636;28;20918;-60
2022/01/04 09:26:54;;;;;;;6.68;4.10;;;;;;;6.44;100.00;98729.00;5094742;28;20024;-60
2022/01/04 09:29:19;;;;;;;7.28;3.92;;;;;;;6.43;100.00;98722.94;5090997;28;20145;-60
2022/01/04 09:31:49;;;;;;;4.95;3.63;;;;;;;6.40;100.00;98702.25;5094264;28;20050;-60
2022/01/04 09:34:15;;;;;;;4.13;3.42;;;;;;;6.40;100.00;98699.63;5094917;28;20121;-60
2022/01/04 09:36:40;;;;;;;5.05;3.50;;;;;;;6.46;100.00;98716.69;5094364;28;20028;-60
2022/01/04 09:39:09;;;;;;;6.88;3.67;;;;;;;6.50;100.00;98718.19;5076372;28;20030;-60
2022/01/04 09:41:34;;;;;;;6.13;4.00;;;;;;;6.51;100.00;98696.38;5094231;28;20058;-60
2022/01/04 09:44:00;;;;;;;5.43;2.78;;;;;;;6.45;100.00;98689.78;5092954;28;20028;-59
2022/01/04 09:46:26;;;;;;;4.07;2.60;;;;;;;6.53;100.00;98707.56;5094489;28;20030;-60
2022/01/04 09:48:52;;;;;;;6.88;2.92;;;;;;;6.55;100.00;98716.13;5090341;28;20024;-59
2022/01/04 09:51:17;;;;;;;4.15;2.58;;;;;;;6.55;100.00;98705.72;5093601;28;20092;-60
2022/01/04 09:53:43;;;;;;;5.47;2.60;;;;;;;6.56;100.00;98712.56;5093789;28;20497;-60
2022/01/04 09:56:09;;;;;;;9.38;3.42;;;;;;;6.30;100.00;98679.41;5093902;28;20032;-59
2022/01/04 09:58:34;;;;;;;4.30;2.58;;;;;;;6.55;100.00;98735.25;5093968;28;20047;-60
2022/01/04 10:01:00;;;;;;;5.95;3.28;;;;;;;6.05;100.00;98647.00;5093888;28;20032;-59
2022/01/04 10:03:32;;;;;;;5.53;3.15;;;;;;;6.56;100.00;98726.47;5093589;28;20024;-60
2022/01/04 10:06:07;;;;;;;7.80;3.03;;;;;;;6.59;100.00;98723.66;5092608;28;20020;-60
2022/01/04 10:08:32;;;;;;;5.00;3.20;;;;;;;6.60;100.00;98724.50;5075913;28;20538;-60
2022/01/04 10:11:04;;;;;;;4.22;3.10;;;;;;;6.62;100.00;98743.53;5092636;28;20111;-59
2022/01/04 10:13:30;;;;;;;6.78;3.30;;;;;;;6.61;100.00;98742.69;5094096;28;20387;-60
2022/01/04 10:15:56;;;;;;;7.30;4.25;;;;;;;6.64;100.00;98742.50;5086777;28;20028;-59
2022/01/04 10:18:24;;;;;;;4.88;3.38;;;;;;;6.63;100.00;98734.75;5093988;28;20038;-60
2022/01/04 10:20:59;;;;;;;7.75;3.88;;;;;;;6.64;100.00;98736.44;5093778;28;20043;-62
2022/01/04 10:23:25;;;;;;;6.30;4.05;;;;;;;6.67;100.00;98728.44;5034788;28;1705170;-60
2022/01/04 10:25:52;;;;;;;7.43;4.47;;;;;;;6.70;100.00;98728.22;5080418;28;20430;-60
2022/01/04 10:28:47;;;;;;;5.47;4.22;;;;;;;6.75;100.00;98727.97;5091899;28;20058;-60
2022/01/04 10:31:17;;;;;;;9.45;4.78;;;;;;;6.77;100.00;98716.50;5080696;28;20039;-60
2022/01/04 10:33:43;;;;;;;8.25;4.82;;;;;;;6.81;100.00;98717.13;5093728;28;20028;-60
2022/01/04 10:36:14;;;;;;;8.63;4.57;;;;;;;6.82;100.00;98701.41;5093016;28;20038;-60
2022/01/04 10:38:42;;;;;;;8.02;5.53;;;;;;;6.82;100.00;98693.56;5092385;28;20059;-60
2022/01/04 10:41:19;;;;;;;8.52;6.10;;;;;;;6.86;100.00;98697.63;5092593;28;20039;-60
2022/01/04 10:43:46;;;;;;;9.55;6.63;;;;;;;6.89;100.00;98684.44;5090705;28;20046;-60
2022/01/04 10:46:18;;;;;;;13.52;8.40;;;;;;;6.90;100.00;98680.84;5076150;28;20043;-60
2022/01/04 10:48:46;;;;;;;8.70;7.10;;;;;;;6.93;100.00;98670.22;5093927;28;20096;-60
2022/01/04 10:51:14;;;;;;;18.23;6.95;;;;;;;6.92;100.00;98668.56;5075976;28;20383;-60
2022/01/04 10:53:50;;;;;;;10.07;7.18;;;;;;;6.71;100.00;98651.63;5093848;28;20031;-60
2022/01/04 10:56:17;;;;;;;10.77;7.00;;;;;;;6.96;100.00;98679.66;5093162;28;20028;-60
2022/01/04 10:58:50;;;;;;;10.20;6.97;;;;;;;6.97;100.00;98687.38;5093478;28;20031;-60
2022/01/04 11:01:22;;;;;;;11.75;7.22;;;;;;;6.99;100.00;98706.41;5086422;28;20032;-60
2022/01/04 11:03:53;;;;;;;12.85;8.15;;;;;;;6.96;100.00;98696.13;5094065;28;20071;-60
2022/01/04 11:06:23;;;;;;;12.40;8.23;;;;;;;6.99;100.00;98709.03;5093203;28;20034;-60
2022/01/04 11:08:49;;;;;;;18.52;9.43;;;;;;;7.01;100.00;98701.91;5093380;28;20379;-60
2022/01/04 11:11:15;;;;;;;14.43;9.05;;;;;;;7.00;100.00;98696.78;5093478;28;20089;-60
2022/01/04 11:13:40;;;;;;;18.67;9.70;;;;;;;6.99;100.00;98698.56;5092589;28;20028;-60
2022/01/04 11:16:06;;;;;;;21.33;10.27;;;;;;;7.00;100.00;98692.41;5093134;28;20039;-60
2022/01/04 11:18:33;;;;;;;18.38;10.95;;;;;;;7.04;100.00;98699.09;5094241;28;20052;-60
2022/01/04 11:20:59;;;;;;;16.30;11.45;;;;;;;7.05;100.00;98698.19;5090445;28;20031;-60
2022/01/04 11:23:28;;;;;;;21.13;11.57;;;;;;;7.07;100.00;98692.84;5088413;28;20482;-64
2022/01/04 11:25:54;;;;;;;14.40;10.95;;;;;;;7.04;100.00;98683.44;5092271;28;20024;-60
2022/01/04 11:28:21;;;;;;;15.80;11.35;;;;;;;7.12;100.00;98691.63;5080884;28;20039;-60
2022/01/04 11:31:01;;;;;;;16.90;11.15;;;;;;;7.18;100.00;98679.94;5104788;28;20112;-60
2022/01/04 11:33:33;;;;;;;16.48;11.43;;;;;;;7.27;100.00;98684.56;5088235;28;20039;-60
2022/01/04 11:35:59;;;;;;;16.65;12.68;;;;;;;7.28;100.00;98694.09;5074249;28;20036;-60
2022/01/04 11:38:36;;;;;;;19.02;12.50;;;;;;;7.32;100.00;98695.59;5073983;28;20031;-60